Time;durP1;ratioP1;P1;durP2;ratioP2;P2;SDS_P1;SDS_P2;PMS_P1;PMS_P2;Temp;Humidity;BMP_temperature;BMP_pressure;BME280_temperature;BME280_humidity;BME280_pressure;Samples;Min_cycle;Max_cycle;Signal;HPM_P1;HPM_P2
2023/04/14 00:01:17;;;;;;;11.70;4.63;;;;;;;;;;5020434;28;20018;-95
2023/04/14 00:17:53;;;;;;;10.57;4.88;;;;;;;;;;5215599;23;20049;-95
2023/04/14 00:53:53;;;;;;;5.25;3.75;;;;;;;;;;4967431;23;20073;-94
2023/04/14 00:56:19;;;;;;;8.85;4.20;;;;;;;;;;4959470;29;20046;-95
2023/04/14 00:58:45;;;;;;;9.57;3.92;;;;;;;;;;4960965;29;20023;-94
2023/04/14 01:01:11;;;;;;;7.88;4.25;;;;;;;;;;4960672;29;20310;-95
2023/04/14 01:08:50;;;;;;;8.35;4.03;;;;;;;;;;5604546;23;20055;-95
2023/04/14 01:11:18;;;;;;;8.75;4.60;;;;;;;;;;4962942;28;20023;-94
2023/04/14 01:13:44;;;;;;;7.55;3.85;;;;;;;;;;4962582;29;20050;-96
2023/04/14 01:16:24;;;;;;;9.68;4.43;;;;;;;;;;4960320;29;20038;-95
2023/04/14 01:18:55;;;;;;;8.50;4.40;;;;;;;;;;4969485;29;20045;-96
2023/04/14 01:21:23;;;;;;;13.05;4.18;;;;;;;;;;4967027;29;20149;-95
2023/04/14 01:24:13;;;;;;;8.85;4.40;;;;;;;;;;4963662;29;20039;-95
2023/04/14 01:26:42;;;;;;;6.15;4.32;;;;;;;;;;4967015;29;20046;-95
2023/04/14 01:29:26;;;;;;;9.80;4.43;;;;;;;;;;4977841;28;20031;-93
2023/04/14 01:32:01;;;;;;;9.88;4.57;;;;;;;;;;4994714;28;20030;-93
2023/04/14 01:34:36;;;;;;;10.52;4.30;;;;;;;;;;4979072;28;20027;-91
2023/04/14 01:37:08;;;;;;;8.25;4.32;;;;;;;;;;4979388;28;20037;-94
2023/04/14 01:39:54;;;;;;;7.75;4.80;;;;;;;;;;4969986;28;20042;-93
2023/04/14 01:42:23;;;;;;;15.23;5.45;;;;;;;;;;4958769;29;20326;-96
2023/04/14 01:44:52;;;;;;;8.98;4.70;;;;;;;;;;4959948;29;20152;-94
2023/04/14 01:47:19;;;;;;;10.38;4.63;;;;;;;;;;4959970;29;20030;-94
2023/04/14 01:49:47;;;;;;;12.40;4.80;;;;;;;;;;4959854;28;20028;-94
2023/04/14 01:52:16;;;;;;;13.95;4.95;;;;;;;;;;4960038;29;20342;-95
2023/04/14 02:00:38;;;;;;;8.25;3.83;;;;;;;;;;4995272;23;20055;-95
2023/04/14 02:03:05;;;;;;;8.73;4.88;;;;;;;;;;4948989;29;20478;-94
2023/04/14 02:05:32;;;;;;;9.90;4.20;;;;;;;;;;4945056;29;20414;-93
2023/04/14 02:07:59;;;;;;;9.68;4.43;;;;;;;;;;4940656;29;20300;-94
2023/04/14 02:10:26;;;;;;;11.68;4.40;;;;;;;;;;4959952;29;20414;-95
2023/04/14 02:12:53;;;;;;;10.77;4.43;;;;;;;;;;4958826;29;20031;-94
2023/04/14 02:15:20;;;;;;;8.88;4.13;;;;;;;;;;4959542;29;20027;-95
2023/04/14 02:17:48;;;;;;;14.05;5.90;;;;;;;;;;4958464;29;20047;-94
2023/04/14 02:20:14;;;;;;;19.20;8.25;;;;;;;;;;4958702;29;20027;-94
2023/04/14 02:22:41;;;;;;;19.15;6.90;;;;;;;;;;4958645;29;20055;-93
2023/04/14 02:31:15;;;;;;;15.25;6.53;;;;;;;;;;5615478;23;20065;-96
2023/04/14 02:43:13;;;;;;;11.88;5.47;;;;;;;;;;6031159;23;20082;-95
2023/04/14 02:45:42;;;;;;;7.88;4.78;;;;;;;;;;4966066;29;20457;-96
2023/04/14 02:48:14;;;;;;;10.40;5.00;;;;;;;;;;4953829;29;20043;-96
2023/04/14 02:50:44;;;;;;;14.93;5.38;;;;;;;;;;4944740;29;20024;-95
2023/04/14 02:53:10;;;;;;;17.38;5.50;;;;;;;;;;4941682;29;20062;-96
2023/04/14 02:55:36;;;;;;;11.48;5.32;;;;;;;;;;4942494;29;20028;-95
2023/04/14 02:58:03;;;;;;;10.90;5.13;;;;;;;;;;4943326;29;20053;-96
2023/04/14 03:00:30;;;;;;;18.73;7.35;;;;;;;;;;4942883;29;20028;-96
2023/04/14 03:02:57;;;;;;;20.25;6.18;;;;;;;;;;4940824;29;20110;-95
2023/04/14 03:05:24;;;;;;;13.55;4.85;;;;;;;;;;4940753;29;20044;-96
2023/04/14 03:13:59;;;;;;;12.98;4.95;;;;;;;;;;4969618;28;20050;-96
2023/04/14 03:16:26;;;;;;;18.60;8.50;;;;;;;;;;4968076;29;20027;-96
2023/04/14 03:18:53;;;;;;;12.13;5.82;;;;;;;;;;4967759;29;20039;-96
2023/04/14 03:21:20;;;;;;;8.88;4.43;;;;;;;;;;4971196;29;20023;-95
2023/04/14 03:23:47;;;;;;;9.77;3.35;;;;;;;;;;4967515;29;20061;-95
2023/04/14 03:26:20;;;;;;;9.05;3.30;;;;;;;;;;4967442;29;20062;-95
2023/04/14 03:28:47;;;;;;;8.55;3.00;;;;;;;;;;4968876;29;20038;-95
2023/04/14 03:31:19;;;;;;;7.38;3.20;;;;;;;;;;4972356;29;20023;-96
2023/04/14 03:33:46;;;;;;;8.68;3.50;;;;;;;;;;4968176;29;20032;-96
2023/04/14 03:36:13;;;;;;;6.55;2.65;;;;;;;;;;4966739;29;20036;-96
2023/04/14 03:38:42;;;;;;;5.35;3.00;;;;;;;;;;4929269;29;20043;-95
2023/04/14 03:41:09;;;;;;;5.90;2.63;;;;;;;;;;4948822;29;20031;-95
2023/04/14 03:55:30;;;;;;;8.52;2.55;;;;;;;;;;1890669;23;20541;-96
2023/04/14 03:57:59;;;;;;;;;;;;;;;;;;4932724;29;20059;-96
2023/04/14 04:00:35;;;;;;;9.93;2.92;;;;;;;;;;4937059;29;20344;-95
2023/04/14 04:03:07;;;;;;;15.38;3.10;;;;;;;;;;4920011;29;20032;-96
2023/04/14 04:05:39;;;;;;;10.05;3.05;;;;;;;;;;4934510;29;20034;-94
2023/04/14 04:08:06;;;;;;;6.72;2.85;;;;;;;;;;4935321;29;20044;-95
2023/04/14 04:13:36;;;;;;;9.05;2.65;;;;;;;;;;4934449;29;20075;-95
2023/04/14 04:16:02;;;;;;;8.02;3.03;;;;;;;;;;4923111;29;20036;-93
2023/04/14 04:18:30;;;;;;;6.18;2.83;;;;;;;;;;4923541;29;20028;-94
2023/04/14 04:20:58;;;;;;;8.85;2.80;;;;;;;;;;4924563;29;20032;-95
2023/04/14 04:23:32;;;;;;;7.82;3.13;;;;;;;;;;4932873;29;20414;-94
2023/04/14 04:26:08;;;;;;;5.70;3.30;;;;;;;;;;4927980;29;20027;-95
2023/04/14 04:28:37;;;;;;;7.63;3.55;;;;;;;;;;4936967;29;20119;-95
2023/04/14 04:31:04;;;;;;;9.35;3.15;;;;;;;;;;4917986;29;20040;-94
2023/04/14 04:33:32;;;;;;;6.90;3.00;;;;;;;;;;4932326;29;20055;-95
2023/04/14 04:36:00;;;;;;;7.13;3.10;;;;;;;;;;4916174;29;20080;-95
2023/04/14 04:41:30;;;;;;;6.88;3.05;;;;;;;;;;4904235;29;20052;-93
2023/04/14 04:43:57;;;;;;;5.00;2.97;;;;;;;;;;4903020;29;20380;-94
2023/04/14 04:46:42;;;;;;;5.80;3.25;;;;;;;;;;4903742;29;20052;-94
2023/04/14 04:49:08;;;;;;;7.50;3.20;;;;;;;;;;4928181;29;20023;-94
2023/04/14 04:51:34;;;;;;;8.43;4.47;;;;;;;;;;4929114;29;20323;-94
2023/04/14 04:54:00;;;;;;;15.23;6.93;;;;;;;;;;4921730;29;20039;-94
2023/04/14 04:56:27;;;;;;;20.35;9.35;;;;;;;;;;4932772;29;20062;-94
2023/04/14 04:58:53;;;;;;;14.52;6.30;;;;;;;;;;4941675;29;20122;-93
2023/04/14 05:01:19;;;;;;;13.02;6.07;;;;;;;;;;4940499;29;20028;-94
2023/04/14 05:03:45;;;;;;;10.02;6.13;;;;;;;;;;4941360;29;20453;-93
2023/04/14 05:06:12;;;;;;;13.68;6.80;;;;;;;;;;4940251;29;20032;-93
2023/04/14 05:09:03;;;;;;;15.75;9.63;;;;;;;;;;4928760;29;20024;-94
2023/04/14 05:11:30;;;;;;;15.30;8.90;;;;;;;;;;4921014;29;20055;-94
2023/04/14 05:13:56;;;;;;;22.58;13.02;;;;;;;;;;4921227;29;20032;-94
2023/04/14 05:16:22;;;;;;;24.58;11.93;;;;;;;;;;4921305;29;20039;-94
2023/04/14 05:18:48;;;;;;;34.13;19.17;;;;;;;;;;4921833;29;20028;-94
2023/04/14 05:21:15;;;;;;;23.60;14.45;;;;;;;;;;4923496;29;20032;-95
2023/04/14 05:23:50;;;;;;;14.23;8.10;;;;;;;;;;4929791;29;20051;-93
2023/04/14 05:26:21;;;;;;;14.50;8.65;;;;;;;;;;4934549;29;20411;-95
2023/04/14 05:29:20;;;;;;;12.32;6.78;;;;;;;;;;4938368;29;20063;-95
2023/04/14 05:31:47;;;;;;;13.85;7.57;;;;;;;;;;4937675;29;20040;-94
2023/04/14 05:34:16;;;;;;;11.13;7.32;;;;;;;;;;4937803;29;20032;-95
2023/04/14 05:44:34;;;;;;;10.75;7.47;;;;;;;;;;5980512;23;20017;-94
2023/04/14 05:49:41;;;;;;;15.90;10.98;;;;;;;;;;5163840;23;20141;-95
2023/04/14 05:57:45;;;;;;;9.88;7.75;;;;;;;;;;5091873;23;20047;-95
2023/04/14 06:00:12;;;;;;;11.63;8.15;;;;;;;;;;4964865;29;20118;-95
2023/04/14 06:02:38;;;;;;;18.83;10.52;;;;;;;;;;4960483;29;20074;-96
2023/04/14 06:05:06;;;;;;;14.18;9.13;;;;;;;;;;4959990;29;20046;-96
2023/04/14 06:07:34;;;;;;;12.50;8.77;;;;;;;;;;4950723;29;20055;-96
2023/04/14 06:10:00;;;;;;;14.68;9.00;;;;;;;;;;4955105;29;20031;-96
2023/04/14 06:12:27;;;;;;;20.10;11.25;;;;;;;;;;4945755;29;20055;-95
2023/04/14 06:14:54;;;;;;;9.80;6.65;;;;;;;;;;4939500;29;20043;-95
2023/04/14 06:17:20;;;;;;;8.25;6.50;;;;;;;;;;4941182;29;20035;-94
2023/04/14 06:19:47;;;;;;;10.70;7.97;;;;;;;;;;4943999;29;20031;-95
2023/04/14 06:22:20;;;;;;;12.48;7.40;;;;;;;;;;4947355;29;20032;-96
2023/04/14 06:24:52;;;;;;;9.45;6.55;;;;;;;;;;4967144;29;20112;-95
2023/04/14 06:27:29;;;;;;;12.68;8.32;;;;;;;;;;4952637;29;20046;-95
2023/04/14 06:29:55;;;;;;;9.90;6.65;;;;;;;;;;4944199;29;20047;-94
2023/04/14 06:32:21;;;;;;;15.88;8.60;;;;;;;;;;4953397;29;20043;-95
2023/04/14 06:34:48;;;;;;;11.63;6.75;;;;;;;;;;4949034;29;20071;-93
2023/04/14 06:37:15;;;;;;;6.13;4.53;;;;;;;;;;4940549;29;20062;-94
2023/04/14 06:43:16;;;;;;;7.40;5.10;;;;;;;;;;5845181;23;20058;-94
2023/04/14 06:45:59;;;;;;;7.13;5.00;;;;;;;;;;4991450;23;20102;-94
2023/04/14 06:48:26;;;;;;;7.18;4.82;;;;;;;;;;4972093;29;20055;-96
2023/04/14 06:50:56;;;;;;;8.38;5.20;;;;;;;;;;4963557;29;20110;-95
2023/04/14 06:53:29;;;;;;;5.65;4.75;;;;;;;;;;4974416;29;20043;-96
2023/04/14 06:55:59;;;;;;;6.85;5.68;;;;;;;;;;4941412;28;20133;-85
2023/04/14 06:58:26;;;;;;;6.10;4.60;;;;;;;;;;4982278;28;20023;-86
2023/04/14 07:01:10;;;;;;;9.38;5.20;;;;;;;;;;5001759;28;20034;-95
2023/04/14 07:03:40;;;;;;;8.93;6.60;;;;;;;;;;4980078;28;20038;-87
2023/04/14 07:06:09;;;;;;;37.90;24.60;;;;;;;;;;4997540;28;20035;-94
2023/04/14 07:08:35;;;;;;;55.55;37.08;;;;;;;;;;4983368;28;20034;-92
2023/04/14 07:11:02;;;;;;;63.55;45.42;;;;;;;;;;4981004;28;20059;-90
2023/04/14 07:18:40;;;;;;;14.98;9.95;;;;;;;;;;5866184;23;21114;-92
2023/04/14 07:28:49;;;;;;;11.27;5.85;;;;;;;;;;4963574;29;20051;-94
2023/04/14 07:31:15;;;;;;;10.63;6.55;;;;;;;;;;4966620;29;20024;-95
2023/04/14 07:33:47;;;;;;;11.38;6.30;;;;;;;;;;4970830;29;20015;-95
2023/04/14 07:36:14;;;;;;;15.82;8.35;;;;;;;;;;4979794;28;20082;-95
2023/04/14 07:38:42;;;;;;;18.13;10.70;;;;;;;;;;4959819;29;20040;-96
2023/04/14 07:44:11;;;;;;;24.90;13.00;;;;;;;;;;4962637;28;20111;-94
2023/04/14 07:46:37;;;;;;;20.08;12.52;;;;;;;;;;4952715;28;20403;-93
2023/04/14 07:49:04;;;;;;;16.63;10.07;;;;;;;;;;4975612;28;20027;-94
2023/04/14 07:51:30;;;;;;;9.27;6.75;;;;;;;;;;4961012;29;20326;-94
2023/04/14 07:53:56;;;;;;;13.10;8.15;;;;;;;;;;4960484;28;20024;-93
2023/04/14 07:59:25;;;;;;;10.65;6.05;;;;;;;;;;4979760;28;20078;-91
2023/04/14 08:01:52;;;;;;;8.68;6.05;;;;;;;;;;4963098;28;20031;-93
2023/04/14 08:04:18;;;;;;;7.97;5.47;;;;;;;;;;4963548;28;20318;-95
2023/04/14 08:06:45;;;;;;;8.32;6.25;;;;;;;;;;4961928;29;20049;-94
2023/04/14 08:09:11;;;;;;;11.75;7.70;;;;;;;;;;4954161;29;20110;-94
2023/04/14 08:14:41;;;;;;;73.63;34.58;;;;;;;;;;4954699;29;20062;-95
2023/04/14 08:17:07;;;;;;;115.70;52.28;;;;;;;;;;4963501;29;20028;-95
2023/04/14 08:19:33;;;;;;;44.67;22.77;;;;;;;;;;4952147;29;20016;-94
2023/04/14 08:21:59;;;;;;;28.58;15.82;;;;;;;;;;4963124;29;20027;-93
2023/04/14 08:24:26;;;;;;;39.75;19.73;;;;;;;;;;4965004;29;20031;-95
2023/04/14 08:26:55;;;;;;;47.65;23.67;;;;;;;;;;4976755;28;20046;-95
2023/04/14 08:29:27;;;;;;;27.80;14.82;;;;;;;;;;5106722;23;20102;-94
2023/04/14 08:31:53;;;;;;;26.88;15.02;;;;;;;;;;4926422;29;20051;-93
2023/04/14 08:34:19;;;;;;;38.90;17.65;;;;;;;;;;4957575;29;20031;-93
2023/04/14 08:36:46;;;;;;;31.08;15.60;;;;;;;;;;4941749;29;20385;-91
2023/04/14 08:39:12;;;;;;;25.05;12.50;;;;;;;;;;4925268;29;20034;-92
2023/04/14 08:41:39;;;;;;;28.30;15.07;;;;;;;;;;4924981;29;20437;-91
2023/04/14 08:44:06;;;;;;;31.35;16.08;;;;;;;;;;4925088;29;20023;-90
2023/04/14 08:46:33;;;;;;;41.30;21.77;;;;;;;;;;4941699;29;20039;-91
2023/04/14 08:49:04;;;;;;;30.30;17.63;;;;;;;;;;4924616;29;20028;-92
2023/04/14 08:51:31;;;;;;;12.57;7.55;;;;;;;;;;4932564;29;20407;-91
2023/04/14 08:53:57;;;;;;;7.05;4.63;;;;;;;;;;4924008;29;20040;-92
2023/04/14 08:56:42;;;;;;;5.05;3.50;;;;;;;;;;4924328;29;20028;-93
2023/04/14 08:59:10;;;;;;;10.40;5.75;;;;;;;;;;4923966;29;20031;-92
2023/04/14 09:01:36;;;;;;;8.95;5.38;;;;;;;;;;4913490;29;20040;-94
2023/04/14 09:04:03;;;;;;;13.27;6.50;;;;;;;;;;4922436;29;20039;-92
2023/04/14 09:06:29;;;;;;;15.90;7.47;;;;;;;;;;4921474;29;20115;-91
2023/04/14 09:08:55;;;;;;;12.63;7.18;;;;;;;;;;4891306;29;20020;-91
2023/04/14 09:11:40;;;;;;;18.60;8.25;;;;;;;;;;4921226;29;20112;-91
2023/04/14 09:14:06;;;;;;;18.13;8.02;;;;;;;;;;4895311;29;20040;-92
2023/04/14 09:16:32;;;;;;;17.33;8.43;;;;;;;;;;4922298;29;20397;-83
2023/04/14 09:18:59;;;;;;;14.98;8.82;;;;;;;;;;4905225;29;20369;-90
2023/04/14 09:21:26;;;;;;;16.40;8.90;;;;;;;;;;4905463;29;20084;-91
2023/04/14 09:23:52;;;;;;;21.73;12.80;;;;;;;;;;4905432;29;20055;-90
2023/04/14 09:26:18;;;;;;;11.63;7.13;;;;;;;;;;4922040;29;20288;-91
2023/04/14 09:28:44;;;;;;;8.90;5.93;;;;;;;;;;4922167;29;20032;-91
2023/04/14 09:31:11;;;;;;;9.75;5.70;;;;;;;;;;4938065;29;20339;-90
2023/04/14 09:33:43;;;;;;;13.95;7.53;;;;;;;;;;4939912;29;20032;-90
2023/04/14 09:36:19;;;;;;;15.95;8.75;;;;;;;;;;4939965;29;20035;-91
2023/04/14 09:38:45;;;;;;;9.50;4.80;;;;;;;;;;4941013;29;20028;-91
2023/04/14 09:41:16;;;;;;;9.52;6.30;;;;;;;;;;4940571;29;20430;-92
2023/04/14 09:43:42;;;;;;;10.77;6.88;;;;;;;;;;4939711;29;20034;-90
2023/04/14 09:46:09;;;;;;;10.65;6.22;;;;;;;;;;4940427;29;20039;-91
2023/04/14 09:48:38;;;;;;;15.60;7.57;;;;;;;;;;4940889;29;20032;-89
2023/04/14 09:51:06;;;;;;;18.55;8.52;;;;;;;;;;4939696;29;20050;-91
2023/04/14 09:53:33;;;;;;;21.33;10.60;;;;;;;;;;4940971;29;20023;-91
2023/04/14 09:56:01;;;;;;;17.35;9.00;;;;;;;;;;4939548;29;20027;-91
2023/04/14 09:58:31;;;;;;;16.48;8.82;;;;;;;;;;4952651;29;20426;-89
2023/04/14 10:00:58;;;;;;;11.70;5.93;;;;;;;;;;4958272;29;20035;-90
2023/04/14 10:03:34;;;;;;;9.35;5.25;;;;;;;;;;4940713;29;20123;-90
2023/04/14 10:06:01;;;;;;;9.32;4.72;;;;;;;;;;4940364;29;20310;-90
2023/04/14 10:08:35;;;;;;;7.65;4.30;;;;;;;;;;4939294;29;20055;-91
2023/04/14 10:17:50;;;;;;;6.68;4.93;;;;;;;;;;4940010;29;20059;-90
2023/04/14 10:20:16;;;;;;;11.77;7.20;;;;;;;;;;4939036;29;20122;-91
2023/04/14 10:22:42;;;;;;;7.60;5.20;;;;;;;;;;4940551;29;20160;-91
2023/04/14 10:28:12;;;;;;;11.63;6.80;;;;;;;;;;4940150;29;20083;-90
2023/04/14 10:30:40;;;;;;;10.15;6.43;;;;;;;;;;4939156;29;20043;-92
2023/04/14 10:33:06;;;;;;;9.55;6.00;;;;;;;;;;4953916;29;20027;-89
2023/04/14 10:35:45;;;;;;;7.30;4.28;;;;;;;;;;4952565;29;20044;-89
2023/04/14 10:38:11;;;;;;;10.32;4.97;;;;;;;;;;4939117;29;20036;-90
2023/04/14 10:43:54;;;;;;;11.00;6.18;;;;;;;;;;4940258;29;20457;-89
2023/04/14 10:46:21;;;;;;;11.20;5.90;;;;;;;;;;4939648;29;20085;-89
2023/04/14 10:48:48;;;;;;;9.60;6.30;;;;;;;;;;4939955;29;20051;-89
2023/04/14 10:51:16;;;;;;;8.68;5.38;;;;;;;;;;4939955;29;20100;-91
2023/04/14 10:53:47;;;;;;;10.57;7.40;;;;;;;;;;4939833;29;20028;-90
2023/04/14 10:56:35;;;;;;;15.45;8.90;;;;;;;;;;4940038;29;20043;-90
2023/04/14 10:59:02;;;;;;;14.23;7.32;;;;;;;;;;4938863;29;20036;-91
2023/04/14 11:01:31;;;;;;;17.08;10.77;;;;;;;;;;4938954;29;20039;-91
2023/04/14 11:04:10;;;;;;;24.17;12.35;;;;;;;;;;4947991;29;20023;-90
2023/04/14 11:06:45;;;;;;;19.65;10.13;;;;;;;;;;4958572;29;20337;-93
2023/04/14 11:09:35;;;;;;;19.83;11.70;;;;;;;;;;4961610;28;20019;-94
2023/04/14 11:22:05;;;;;;;11.88;4.82;;;;;;;;;;4920881;29;20039;-91
2023/04/14 11:24:31;;;;;;;12.05;5.80;;;;;;;;;;4953739;29;20032;-90
2023/04/14 11:30:01;;;;;;;19.25;9.55;;;;;;;;;;4941649;29;20793;-90
2023/04/14 11:32:27;;;;;;;17.95;9.32;;;;;;;;;;4943145;29;20039;-91
2023/04/14 11:34:53;;;;;;;20.10;9.68;;;;;;;;;;4942246;29;20051;-90
2023/04/14 11:37:19;;;;;;;8.15;5.00;;;;;;;;;;4943261;29;20119;-91
2023/04/14 11:39:47;;;;;;;11.25;5.15;;;;;;;;;;4942705;29;20020;-91
2023/04/14 11:42:13;;;;;;;14.05;5.70;;;;;;;;;;4961983;29;20059;-89
2023/04/14 11:44:39;;;;;;;13.13;6.13;;;;;;;;;;4954511;29;20038;-91
2023/04/14 11:47:05;;;;;;;8.25;4.65;;;;;;;;;;4941848;29;20386;-89
2023/04/14 11:49:35;;;;;;;33.60;11.30;;;;;;;;;;4941867;29;20024;-90
2023/04/14 11:52:05;;;;;;;24.23;11.15;;;;;;;;;;4942587;29;20422;-90
2023/04/14 11:54:34;;;;;;;13.23;6.15;;;;;;;;;;4942956;29;20036;-89
2023/04/14 11:57:00;;;;;;;8.25;4.80;;;;;;;;;;4941753;29;20437;-90
2023/04/14 11:59:26;;;;;;;8.85;4.93;;;;;;;;;;4942544;29;20067;-89
2023/04/14 12:01:53;;;;;;;13.07;6.43;;;;;;;;;;4941643;29;20102;-91
2023/04/14 12:04:19;;;;;;;17.08;9.68;;;;;;;;;;4942597;29;20299;-90
2023/04/14 12:06:45;;;;;;;15.02;8.80;;;;;;;;;;4942775;29;20133;-89
2023/04/14 12:09:11;;;;;;;9.68;5.80;;;;;;;;;;4941608;29;20027;-89
2023/04/14 12:11:37;;;;;;;8.18;4.75;;;;;;;;;;4942082;29;20403;-89
2023/04/14 12:14:04;;;;;;;8.80;3.83;;;;;;;;;;4941440;29;20024;-89
2023/04/14 12:16:31;;;;;;;8.38;4.97;;;;;;;;;;4942530;29;20032;-89
2023/04/14 12:18:57;;;;;;;12.20;7.20;;;;;;;;;;4942568;29;20024;-89
2023/04/14 12:21:23;;;;;;;123.70;61.67;;;;;;;;;;4941142;29;20043;-90
2023/04/14 12:23:49;;;;;;;59.83;29.58;;;;;;;;;;4941048;29;20042;-89
2023/04/14 12:29:21;;;;;;;33.85;20.55;;;;;;;;;;4942274;29;20046;-92
2023/04/14 12:31:47;;;;;;;7.70;4.82;;;;;;;;;;4941921;29;20051;-90
2023/04/14 12:34:13;;;;;;;7.55;5.30;;;;;;;;;;4942186;29;20016;-91
2023/04/14 12:36:40;;;;;;;7.70;4.10;;;;;;;;;;4949111;29;20357;-89
2023/04/14 12:39:08;;;;;;;7.55;4.75;;;;;;;;;;4961171;28;20027;-90
2023/04/14 12:41:38;;;;;;;8.85;4.90;;;;;;;;;;4961241;29;20077;-89
2023/04/14 12:44:24;;;;;;;7.97;3.90;;;;;;;;;;4951650;29;20489;-90
2023/04/14 12:46:52;;;;;;;5.10;2.95;;;;;;;;;;4961105;29;20047;-89
2023/04/14 12:49:38;;;;;;;11.40;6.45;;;;;;;;;;4961010;29;20063;-89
2023/04/14 12:52:06;;;;;;;8.98;4.45;;;;;;;;;;4959702;29;20019;-90
2023/04/14 12:54:51;;;;;;;9.52;4.13;;;;;;;;;;4949201;29;20087;-91
2023/04/14 12:57:21;;;;;;;10.60;6.05;;;;;;;;;;4941568;29;20407;-90
2023/04/14 12:59:47;;;;;;;7.55;4.70;;;;;;;;;;4940501;29;20049;-90
2023/04/14 13:02:14;;;;;;;9.00;5.15;;;;;;;;;;4941432;29;20331;-91
2023/04/14 13:04:40;;;;;;;11.05;4.10;;;;;;;;;;4941719;29;20044;-89
2023/04/14 13:07:06;;;;;;;14.23;4.68;;;;;;;;;;4941367;29;20032;-89
2023/04/14 13:09:32;;;;;;;8.75;3.70;;;;;;;;;;4944670;29;20042;-88
2023/04/14 13:15:02;;;;;;;5.18;2.20;;;;;;;;;;4941609;29;20075;-88
2023/04/14 13:17:28;;;;;;;6.43;3.28;;;;;;;;;;4941264;29;20031;-90
2023/04/14 13:19:55;;;;;;;6.13;3.20;;;;;;;;;;4941271;29;20032;-87
2023/04/14 13:22:21;;;;;;;8.00;4.53;;;;;;;;;;4940923;29;20020;-88
2023/04/14 13:24:48;;;;;;;7.70;2.95;;;;;;;;;;4940274;29;20071;-88
2023/04/14 13:27:33;;;;;;;7.35;3.33;;;;;;;;;;4941214;29;20291;-88
2023/04/14 13:29:59;;;;;;;10.73;4.47;;;;;;;;;;4939835;29;20039;-88
2023/04/14 13:32:25;;;;;;;9.85;4.85;;;;;;;;;;4931633;29;20036;-88
2023/04/14 13:34:51;;;;;;;7.05;3.55;;;;;;;;;;4907934;29;20028;-88
2023/04/14 13:37:18;;;;;;;8.07;3.75;;;;;;;;;;4913993;29;20032;-89
2023/04/14 13:39:44;;;;;;;7.18;2.22;;;;;;;;;;4940765;29;20083;-89
2023/04/14 13:42:10;;;;;;;5.28;2.10;;;;;;;;;;4924093;29;20322;-89
2023/04/14 13:44:36;;;;;;;15.27;7.40;;;;;;;;;;4911188;29;20418;-89
2023/04/14 13:47:02;;;;;;;14.52;7.80;;;;;;;;;;4921812;29;20040;-89
2023/04/14 13:49:28;;;;;;;10.10;5.20;;;;;;;;;;4921186;29;20359;-88
2023/04/14 13:51:55;;;;;;;7.95;2.90;;;;;;;;;;4920622;29;20039;-90
2023/04/14 13:54:21;;;;;;;10.57;3.03;;;;;;;;;;4921807;29;20033;-89
2023/04/14 13:56:47;;;;;;;7.53;3.92;;;;;;;;;;4921701;29;20032;-89
2023/04/14 13:59:15;;;;;;;7.05;2.15;;;;;;;;;;4904837;29;20044;-90
2023/04/14 14:01:41;;;;;;;8.70;4.00;;;;;;;;;;4921257;29;20356;-90
2023/04/14 14:04:08;;;;;;;7.72;2.78;;;;;;;;;;4921332;29;20032;-89
2023/04/14 14:06:34;;;;;;;7.13;3.33;;;;;;;;;;4921330;29;20056;-89
2023/04/14 14:09:01;;;;;;;8.75;5.68;;;;;;;;;;4904082;29;20419;-89
2023/04/14 14:14:49;;;;;;;53.63;30.25;;;;;;;;;;4920792;29;20449;-91
2023/04/14 14:17:16;;;;;;;35.92;20.48;;;;;;;;;;4886023;29;20037;-91
2023/04/14 14:19:42;;;;;;;12.05;6.50;;;;;;;;;;4901864;29;20055;-89
2023/04/14 14:22:08;;;;;;;7.50;4.35;;;;;;;;;;4889039;29;20051;-89
2023/04/14 14:24:34;;;;;;;9.35;4.43;;;;;;;;;;4904720;29;20036;-90
2023/04/14 14:30:05;;;;;;;10.65;5.25;;;;;;;;;;4923439;29;20039;-89
2023/04/14 14:32:32;;;;;;;9.02;5.50;;;;;;;;;;4940214;29;20051;-91
2023/04/14 14:34:58;;;;;;;7.38;4.00;;;;;;;;;;4939208;29;20039;-90
2023/04/14 14:37:24;;;;;;;10.30;5.40;;;;;;;;;;4940280;29;20032;-90
2023/04/14 14:39:50;;;;;;;20.35;6.88;;;;;;;;;;4939475;29;20034;-90
2023/04/14 14:45:20;;;;;;;8.13;4.35;;;;;;;;;;4939985;29;20038;-89
2023/04/14 14:47:46;;;;;;;12.48;6.53;;;;;;;;;;4953705;29;20023;-89
2023/04/14 14:50:12;;;;;;;9.95;4.53;;;;;;;;;;4958326;29;20026;-90
2023/04/14 14:52:38;;;;;;;6.63;2.83;;;;;;;;;;4959361;29;20067;-90
2023/04/14 14:55:05;;;;;;;9.52;3.60;;;;;;;;;;4959482;29;20027;-89
2023/04/14 14:58:10;;;;;;;13.32;3.88;;;;;;;;;;4959360;29;20071;-90
2023/04/14 15:00:36;;;;;;;9.07;3.22;;;;;;;;;;4956243;29;20043;-89
2023/04/14 15:03:04;;;;;;;7.82;3.75;;;;;;;;;;4959132;28;20027;-89
2023/04/14 15:05:30;;;;;;;5.93;3.38;;;;;;;;;;4962552;29;20031;-88
2023/04/14 15:07:57;;;;;;;10.93;6.22;;;;;;;;;;4961792;28;20025;-90
2023/04/14 15:10:24;;;;;;;13.55;6.32;;;;;;;;;;4960782;29;20028;-90
2023/04/14 15:13:08;;;;;;;12.70;5.18;;;;;;;;;;4948337;29;20114;-90
2023/04/14 15:15:34;;;;;;;9.90;4.22;;;;;;;;;;4924209;29;20024;-89
2023/04/14 15:18:01;;;;;;;10.10;4.18;;;;;;;;;;4931171;29;20311;-89
2023/04/14 15:20:27;;;;;;;8.77;4.55;;;;;;;;;;4943233;29;20035;-89
2023/04/14 15:22:53;;;;;;;6.10;2.83;;;;;;;;;;4942253;29;20040;-91
2023/04/14 15:25:19;;;;;;;10.02;4.50;;;;;;;;;;4942482;29;20141;-90
2023/04/14 15:27:45;;;;;;;8.32;3.67;;;;;;;;;;4943424;29;20410;-90
2023/04/14 15:30:12;;;;;;;10.68;4.63;;;;;;;;;;4942899;29;20415;-89
2023/04/14 15:32:38;;;;;;;8.10;3.55;;;;;;;;;;4943310;29;20023;-89
2023/04/14 15:35:04;;;;;;;10.77;6.00;;;;;;;;;;4943896;29;20027;-89
2023/04/14 15:37:30;;;;;;;14.88;8.05;;;;;;;;;;4958296;29;20024;-90
2023/04/14 15:39:57;;;;;;;8.82;4.25;;;;;;;;;;4956906;29;20055;-86
2023/04/14 15:42:23;;;;;;;9.68;6.00;;;;;;;;;;4948049;29;20039;-79
2023/04/14 15:44:52;;;;;;;12.45;6.22;;;;;;;;;;4942301;29;20098;-79
2023/04/14 15:47:18;;;;;;;11.73;4.20;;;;;;;;;;4941124;29;20430;-79
2023/04/14 15:49:44;;;;;;;10.90;6.45;;;;;;;;;;4941137;29;20097;-79
2023/04/14 15:52:10;;;;;;;6.97;2.83;;;;;;;;;;4942096;29;20110;-79
2023/04/14 15:54:36;;;;;;;6.85;2.00;;;;;;;;;;4942315;29;20027;-80
2023/04/14 15:57:03;;;;;;;5.20;1.40;;;;;;;;;;4941382;29;20110;-79
2023/04/14 15:59:29;;;;;;;5.60;2.83;;;;;;;;;;4940662;29;20091;-79
2023/04/14 16:01:56;;;;;;;8.40;3.97;;;;;;;;;;4940759;29;20035;-79
2023/04/14 16:04:22;;;;;;;8.60;5.03;;;;;;;;;;4940742;29;20341;-79
2023/04/14 16:06:48;;;;;;;14.75;7.93;;;;;;;;;;4941917;29;20032;-79
2023/04/14 16:09:14;;;;;;;5.95;4.00;;;;;;;;;;4941825;29;20319;-79
2023/04/14 16:11:40;;;;;;;7.15;3.80;;;;;;;;;;4940282;29;20035;-80
2023/04/14 16:14:06;;;;;;;7.22;4.00;;;;;;;;;;4941251;29;20024;-80
2023/04/14 16:16:32;;;;;;;6.15;3.60;;;;;;;;;;4940647;29;20032;-80
2023/04/14 16:18:59;;;;;;;7.97;4.82;;;;;;;;;;4941654;29;20027;-80
2023/04/14 16:21:25;;;;;;;7.65;4.63;;;;;;;;;;4940537;29;20024;-80
2023/04/14 16:23:51;;;;;;;6.25;3.60;;;;;;;;;;4941617;29;20047;-80
2023/04/14 16:26:18;;;;;;;8.27;4.50;;;;;;;;;;4941316;29;20411;-80
2023/04/14 16:28:45;;;;;;;11.68;4.20;;;;;;;;;;4941532;29;20032;-80
2023/04/14 16:31:11;;;;;;;6.70;4.75;;;;;;;;;;4941365;29;20040;-79
2023/04/14 16:33:37;;;;;;;12.27;4.70;;;;;;;;;;4942965;29;20028;-90
2023/04/14 16:36:04;;;;;;;12.25;6.10;;;;;;;;;;4942091;29;20031;-91
2023/04/14 16:38:31;;;;;;;22.23;9.48;;;;;;;;;;4940610;29;20051;-91
2023/04/14 16:40:57;;;;;;;16.45;6.93;;;;;;;;;;4942107;29;20031;-92
2023/04/14 16:43:24;;;;;;;16.17;7.45;;;;;;;;;;4940902;29;20035;-91
2023/04/14 16:45:51;;;;;;;20.55;9.13;;;;;;;;;;4941802;29;20439;-92
2023/04/14 16:48:17;;;;;;;20.60;9.55;;;;;;;;;;4941596;29;20106;-92
2023/04/14 16:50:45;;;;;;;34.97;17.92;;;;;;;;;;4941840;29;20024;-91
2023/04/14 16:53:12;;;;;;;17.55;10.63;;;;;;;;;;4941838;29;20035;-91
2023/04/14 16:55:38;;;;;;;19.08;11.30;;;;;;;;;;4940232;29;20031;-91
2023/04/14 16:58:04;;;;;;;32.15;19.67;;;;;;;;;;4940160;29;20043;-91
2023/04/14 17:00:30;;;;;;;33.72;19.88;;;;;;;;;;4940341;29;20130;-91
2023/04/14 17:02:57;;;;;;;26.95;15.95;;;;;;;;;;4941305;29;20466;-93
2023/04/14 17:05:23;;;;;;;14.20;8.82;;;;;;;;;;4941037;29;20039;-91
2023/04/14 17:07:49;;;;;;;60.38;33.90;;;;;;;;;;4940267;29;20050;-91
2023/04/14 17:10:15;;;;;;;178.68;94.88;;;;;;;;;;4941125;29;20136;-91
2023/04/14 17:12:41;;;;;;;50.83;27.77;;;;;;;;;;4940888;29;20023;-91
2023/04/14 17:15:08;;;;;;;25.90;14.25;;;;;;;;;;4941184;29;20458;-92
2023/04/14 17:17:35;;;;;;;15.90;9.15;;;;;;;;;;4941145;29;20028;-92
2023/04/14 17:20:05;;;;;;;20.33;12.60;;;;;;;;;;4941034;29;20024;-91
2023/04/14 17:22:32;;;;;;;32.95;16.45;;;;;;;;;;4940132;29;20026;-91
2023/04/14 17:24:59;;;;;;;44.33;25.27;;;;;;;;;;4941143;29;20075;-91
2023/04/14 17:27:25;;;;;;;25.38;12.30;;;;;;;;;;4940125;29;20036;-91
2023/04/14 17:29:52;;;;;;;23.70;11.85;;;;;;;;;;4940714;29;20462;-91
2023/04/14 17:32:18;;;;;;;13.80;7.90;;;;;;;;;;4940075;29;20024;-90
2023/04/14 17:34:47;;;;;;;18.67;9.95;;;;;;;;;;4939764;29;20080;-90
2023/04/14 17:37:13;;;;;;;12.43;6.70;;;;;;;;;;4940929;29;20172;-91
2023/04/14 17:39:40;;;;;;;13.60;5.55;;;;;;;;;;4939869;29;20075;-90
2023/04/14 17:42:07;;;;;;;10.88;5.60;;;;;;;;;;4939865;29;20027;-91